sensor_id;sensor_type;location;lat;lon;timestamp;pressure;altitude;pressure_sealevel;temperature;humidity
60974;BME280;46846;51.528;5.076;2023-09-19T00:01:06;100246.78;;;16.32;69.55
60974;BME280;46846;51.528;5.076;2023-09-19T00:03:36;100255.25;;;16.26;69.58
60974;BME280;46846;51.528;5.076;2023-09-19T00:06:03;100256.13;;;16.26;69.78
60974;BME280;46846;51.528;5.076;2023-09-19T00:08:30;100260.63;;;16.26;69.67
60974;BME280;46846;51.528;5.076;2023-09-19T00:10:57;100267.94;;;16.24;69.56
60974;BME280;46846;51.528;5.076;2023-09-19T00:13:33;100261.69;;;16.23;69.64
60974;BME280;46846;51.528;5.076;2023-09-19T00:16:01;100267.94;;;16.24;69.42
60974;BME280;46846;51.528;5.076;2023-09-19T00:18:33;100270.94;;;16.19;69.46
60974;BME280;46846;51.528;5.076;2023-09-19T00:21:00;100280.72;;;16.20;69.49
60974;BME280;46846;51.528;5.076;2023-09-19T00:23:26;100274.59;;;16.18;69.48
60974;BME280;46846;51.528;5.076;2023-09-19T00:25:52;100280.94;;;16.17;69.43
60974;BME280;46846;51.528;5.076;2023-09-19T00:28:17;100287.34;;;16.15;69.47
60974;BME280;46846;51.528;5.076;2023-09-19T00:30:45;100282.66;;;16.18;69.54
60974;BME280;46846;51.528;5.076;2023-09-19T00:33:11;100288.19;;;16.15;69.31
60974;BME280;46846;51.528;5.076;2023-09-19T00:35:50;100288.41;;;16.12;69.37
60974;BME280;46846;51.528;5.076;2023-09-19T00:38:15;100290.22;;;16.11;69.38
60974;BME280;46846;51.528;5.076;2023-09-19T00:40:46;100297.63;;;16.08;69.56
60974;BME280;46846;51.528;5.076;2023-09-19T00:43:12;100297.53;;;16.09;69.35
60974;BME280;46846;51.528;5.076;2023-09-19T00:45:39;100304.59;;;16.10;69.12
60974;BME280;46846;51.528;5.076;2023-09-19T00:48:07;100307.50;;;16.07;69.14
60974;BME280;46846;51.528;5.076;2023-09-19T00:50:35;100310.28;;;16.06;69.17
60974;BME280;46846;51.528;5.076;2023-09-19T00:53:01;100321.25;;;16.03;69.23
60974;BME280;46846;51.528;5.076;2023-09-19T00:55:29;100320.47;;;16.01;69.26
60974;BME280;46846;51.528;5.076;2023-09-19T00:57:56;100320.59;;;15.99;69.27
60974;BME280;46846;51.528;5.076;2023-09-19T01:00:22;100321.72;;;15.95;69.22
60974;BME280;46846;51.528;5.076;2023-09-19T01:02:49;100323.56;;;15.94;69.12
60974;BME280;46846;51.528;5.076;2023-09-19T01:05:14;100335.34;;;15.92;69.45
60974;BME280;46846;51.528;5.076;2023-09-19T01:07:40;100331.81;;;15.91;69.29
60974;BME280;46846;51.528;5.076;2023-09-19T01:10:08;100330.84;;;15.92;68.73
60974;BME280;46846;51.528;5.076;2023-09-19T01:20:56;100335.72;;;15.85;69.17
60974;BME280;46846;51.528;5.076;2023-09-19T01:31:24;100340.72;;;15.77;69.13
60974;BME280;46846;51.528;5.076;2023-09-19T01:33:57;100349.81;;;15.75;69.03
60974;BME280;46846;51.528;5.076;2023-09-19T01:36:29;100352.41;;;15.76;68.92
60974;BME280;46846;51.528;5.076;2023-09-19T01:38:55;100344.53;;;15.73;68.56
60974;BME280;46846;51.528;5.076;2023-09-19T01:41:33;100343.59;;;15.74;68.73
60974;BME280;46846;51.528;5.076;2023-09-19T01:44:06;100341.19;;;15.69;68.75
60974;BME280;46846;51.528;5.076;2023-09-19T01:46:36;100348.50;;;15.67;68.88
60974;BME280;46846;51.528;5.076;2023-09-19T01:49:27;100350.41;;;15.65;68.90
60974;BME280;46846;51.528;5.076;2023-09-19T01:52:12;100347.63;;;15.67;68.43
60974;BME280;46846;51.528;5.076;2023-09-19T01:54:53;100346.00;;;15.64;68.56
60974;BME280;46846;51.528;5.076;2023-09-19T01:57:40;100341.59;;;15.63;68.64
60974;BME280;46846;51.528;5.076;2023-09-19T02:00:10;100334.50;;;15.62;68.45
60974;BME280;46846;51.528;5.076;2023-09-19T02:02:43;100344.69;;;15.57;68.64
60974;BME280;46846;51.528;5.076;2023-09-19T02:05:10;100347.53;;;15.54;68.99
60974;BME280;46846;51.528;5.076;2023-09-19T02:07:38;100348.41;;;15.54;68.67
60974;BME280;46846;51.528;5.076;2023-09-19T02:10:07;100346.69;;;15.53;68.75
60974;BME280;46846;51.528;5.076;2023-09-19T02:12:35;100345.25;;;15.48;68.70
60974;BME280;46846;51.528;5.076;2023-09-19T02:15:00;100345.81;;;15.53;68.83
60974;BME280;46846;51.528;5.076;2023-09-19T02:17:26;100350.59;;;15.48;68.63
60974;BME280;46846;51.528;5.076;2023-09-19T02:19:55;100350.59;;;15.48;68.57
60974;BME280;46846;51.528;5.076;2023-09-19T02:22:23;100340.00;;;15.46;68.42
60974;BME280;46846;51.528;5.076;2023-09-19T02:24:50;100345.63;;;15.41;68.45
60974;BME280;46846;51.528;5.076;2023-09-19T02:27:16;100347.38;;;15.42;68.23
60974;BME280;46846;51.528;5.076;2023-09-19T02:29:42;100341.34;;;15.39;68.52
60974;BME280;46846;51.528;5.076;2023-09-19T02:32:08;100338.66;;;15.39;68.39
60974;BME280;46846;51.528;5.076;2023-09-19T02:34:36;100346.88;;;15.36;68.40
60974;BME280;46846;51.528;5.076;2023-09-19T02:37:07;100344.19;;;15.36;68.29
60974;BME280;46846;51.528;5.076;2023-09-19T02:39:34;100343.63;;;15.30;68.49
60974;BME280;46846;51.528;5.076;2023-09-19T02:42:00;100342.56;;;15.33;68.26
60974;BME280;46846;51.528;5.076;2023-09-19T02:44:25;100355.22;;;15.31;68.29
60974;BME280;46846;51.528;5.076;2023-09-19T02:46:51;100350.81;;;15.30;68.00
60974;BME280;46846;51.528;5.076;2023-09-19T02:49:16;100349.09;;;15.29;67.90
60974;BME280;46846;51.528;5.076;2023-09-19T02:51:43;100352.75;;;15.28;68.29
60974;BME280;46846;51.528;5.076;2023-09-19T02:54:09;100359.16;;;15.25;67.80
60974;BME280;46846;51.528;5.076;2023-09-19T02:56:35;100347.66;;;15.23;68.23
60974;BME280;46846;51.528;5.076;2023-09-19T02:59:01;100351.28;;;15.22;68.19
60974;BME280;46846;51.528;5.076;2023-09-19T03:01:27;100355.78;;;15.22;68.22
60974;BME280;46846;51.528;5.076;2023-09-19T03:03:53;100354.91;;;15.21;68.03
60974;BME280;46846;51.528;5.076;2023-09-19T03:06:19;100351.41;;;15.21;68.09
60974;BME280;46846;51.528;5.076;2023-09-19T03:08:46;100354.25;;;15.17;68.13
60974;BME280;46846;51.528;5.076;2023-09-19T03:11:12;100360.56;;;15.16;67.96
60974;BME280;46846;51.528;5.076;2023-09-19T03:13:39;100358.84;;;15.15;67.94
60974;BME280;46846;51.528;5.076;2023-09-19T03:16:05;100363.34;;;15.15;68.02
60974;BME280;46846;51.528;5.076;2023-09-19T03:18:32;100365.94;;;15.16;67.79
60974;BME280;46846;51.528;5.076;2023-09-19T03:20:57;100366.22;;;15.12;67.73
60974;BME280;46846;51.528;5.076;2023-09-19T03:23:25;100359.91;;;15.13;68.10
60974;BME280;46846;51.528;5.076;2023-09-19T03:25:51;100370.81;;;15.10;67.68
60974;BME280;46846;51.528;5.076;2023-09-19T03:28:18;100362.78;;;15.10;67.90
60974;BME280;46846;51.528;5.076;2023-09-19T03:30:44;100363.75;;;15.09;67.66
60974;BME280;46846;51.528;5.076;2023-09-19T03:33:09;100370.31;;;15.03;67.85
60974;BME280;46846;51.528;5.076;2023-09-19T03:35:37;100361.31;;;15.04;67.66
60974;BME280;46846;51.528;5.076;2023-09-19T03:38:03;100371.19;;;15.03;67.79
60974;BME280;46846;51.528;5.076;2023-09-19T03:40:29;100366.00;;;15.00;67.72
60974;BME280;46846;51.528;5.076;2023-09-19T03:42:55;100364.28;;;14.99;67.77
60974;BME280;46846;51.528;5.076;2023-09-19T03:45:20;100361.88;;;14.95;67.65
60974;BME280;46846;51.528;5.076;2023-09-19T03:47:46;100361.03;;;14.94;67.85
60974;BME280;46846;51.528;5.076;2023-09-19T03:50:15;100352.88;;;14.96;67.77
60974;BME280;46846;51.528;5.076;2023-09-19T03:52:46;100358.25;;;14.96;67.92
60974;BME280;46846;51.528;5.076;2023-09-19T03:55:11;100345.81;;;14.95;67.74
60974;BME280;46846;51.528;5.076;2023-09-19T03:57:37;100357.69;;;14.90;67.84
60974;BME280;46846;51.528;5.076;2023-09-19T04:00:04;100361.28;;;14.89;67.67
60974;BME280;46846;51.528;5.076;2023-09-19T04:02:38;100357.97;;;14.86;68.07
60974;BME280;46846;51.528;5.076;2023-09-19T04:05:03;100358.59;;;14.89;67.62
60974;BME280;46846;51.528;5.076;2023-09-19T04:07:29;100348.09;;;14.86;67.87
60974;BME280;46846;51.528;5.076;2023-09-19T04:09:55;100351.72;;;14.85;67.49
60974;BME280;46846;51.528;5.076;2023-09-19T04:12:20;100359.09;;;14.82;67.65
60974;BME280;46846;51.528;5.076;2023-09-19T04:14:46;100364.25;;;14.85;67.68
60974;BME280;46846;51.528;5.076;2023-09-19T04:17:11;100373.16;;;14.85;67.67
60974;BME280;46846;51.528;5.076;2023-09-19T04:19:37;100382.22;;;14.83;67.97
60974;BME280;46846;51.528;5.076;2023-09-19T04:22:02;100377.91;;;14.80;68.05
60974;BME280;46846;51.528;5.076;2023-09-19T04:24:29;100379.56;;;14.83;67.76
60974;BME280;46846;51.528;5.076;2023-09-19T04:26:54;100390.47;;;14.80;67.67
60974;BME280;46846;51.528;5.076;2023-09-19T04:29:20;100391.31;;;14.80;67.36
60974;BME280;46846;51.528;5.076;2023-09-19T04:31:45;100391.66;;;14.74;68.15
60974;BME280;46846;51.528;5.076;2023-09-19T04:34:11;100400.97;;;14.67;68.12
60974;BME280;46846;51.528;5.076;2023-09-19T04:36:43;100401.53;;;14.73;67.85
60974;BME280;46846;51.528;5.076;2023-09-19T04:39:08;100409.50;;;14.75;67.61
60974;BME280;46846;51.528;5.076;2023-09-19T04:41:35;100408.66;;;14.73;67.91
60974;BME280;46846;51.528;5.076;2023-09-19T04:44:04;100417.59;;;14.73;67.77
60974;BME280;46846;51.528;5.076;2023-09-19T04:46:30;100424.84;;;14.71;68.02
60974;BME280;46846;51.528;5.076;2023-09-19T04:48:55;100418.00;;;14.66;67.90
60974;BME280;46846;51.528;5.076;2023-09-19T04:51:21;100426.84;;;14.68;67.84
60974;BME280;46846;51.528;5.076;2023-09-19T04:53:46;100427.75;;;14.67;68.01
60974;BME280;46846;51.528;5.076;2023-09-19T04:56:13;100438.66;;;14.63;67.84
60974;BME280;46846;51.528;5.076;2023-09-19T04:58:38;100436.06;;;14.62;67.82
60974;BME280;46846;51.528;5.076;2023-09-19T05:01:04;100428.16;;;14.60;68.04
60974;BME280;46846;51.528;5.076;2023-09-19T05:03:29;100437.09;;;14.59;67.86
60974;BME280;46846;51.528;5.076;2023-09-19T05:05:56;100431.84;;;14.58;68.09
60974;BME280;46846;51.528;5.076;2023-09-19T05:08:21;100427.63;;;14.54;68.10
60974;BME280;46846;51.528;5.076;2023-09-19T05:10:47;100423.91;;;14.56;67.87
60974;BME280;46846;51.528;5.076;2023-09-19T05:13:14;100427.34;;;14.58;68.01
60974;BME280;46846;51.528;5.076;2023-09-19T05:15:39;100430.13;;;14.57;67.91
60974;BME280;46846;51.528;5.076;2023-09-19T05:18:05;100426.59;;;14.56;68.08
60974;BME280;46846;51.528;5.076;2023-09-19T05:20:32;100433.09;;;14.52;67.96
60974;BME280;46846;51.528;5.076;2023-09-19T05:23:05;100425.91;;;14.53;67.98
60974;BME280;46846;51.528;5.076;2023-09-19T05:25:33;100436.69;;;14.51;67.75
60974;BME280;46846;51.528;5.076;2023-09-19T05:28:02;100427.19;;;14.45;68.20
60974;BME280;46846;51.528;5.076;2023-09-19T05:30:31;100433.25;;;14.49;68.24
60974;BME280;46846;51.528;5.076;2023-09-19T05:32:57;100441.00;;;14.54;67.97
60974;BME280;46846;51.528;5.076;2023-09-19T05:35:23;100437.91;;;14.45;68.22
60974;BME280;46846;51.528;5.076;2023-09-19T05:37:53;100431.72;;;14.45;68.05
60974;BME280;46846;51.528;5.076;2023-09-19T05:45:31;100438.19;;;14.41;68.58
60974;BME280;46846;51.528;5.076;2023-09-19T05:48:07;100430.16;;;14.41;68.17
60974;BME280;46846;51.528;5.076;2023-09-19T05:50:33;100430.34;;;14.38;68.56
60974;BME280;46846;51.528;5.076;2023-09-19T05:52:59;100434.88;;;14.35;68.62
60974;BME280;46846;51.528;5.076;2023-09-19T05:55:24;100441.81;;;14.40;68.50
60974;BME280;46846;51.528;5.076;2023-09-19T05:57:53;100435.56;;;14.39;68.47
60974;BME280;46846;51.528;5.076;2023-09-19T06:00:20;100435.78;;;14.36;68.45
60974;BME280;46846;51.528;5.076;2023-09-19T06:02:56;100422.81;;;14.28;68.80
60974;BME280;46846;51.528;5.076;2023-09-19T06:05:23;100427.13;;;14.31;68.47
60974;BME280;46846;51.528;5.076;2023-09-19T06:07:49;100430.69;;;14.31;68.61
60974;BME280;46846;51.528;5.076;2023-09-19T06:10:15;100427.06;;;14.32;68.40
60974;BME280;46846;51.528;5.076;2023-09-19T06:12:42;100432.47;;;14.31;68.64
60974;BME280;46846;51.528;5.076;2023-09-19T06:15:12;100424.53;;;14.29;68.78
60974;BME280;46846;51.528;5.076;2023-09-19T06:17:54;100429.88;;;14.29;68.48
60974;BME280;46846;51.528;5.076;2023-09-19T06:20:20;100435.22;;;14.29;68.75
60974;BME280;46846;51.528;5.076;2023-09-19T06:22:47;100442.41;;;14.29;68.55
60974;BME280;46846;51.528;5.076;2023-09-19T06:25:14;100447.84;;;14.27;68.68
60974;BME280;46846;51.528;5.076;2023-09-19T06:27:50;100449.56;;;14.28;68.51
60974;BME280;46846;51.528;5.076;2023-09-19T06:30:17;100461.16;;;14.29;68.50
60974;BME280;46846;51.528;5.076;2023-09-19T06:32:43;100459.44;;;14.28;68.60
60974;BME280;46846;51.528;5.076;2023-09-19T06:35:13;100458.75;;;14.24;68.74
60974;BME280;46846;51.528;5.076;2023-09-19T06:37:41;100459.50;;;14.26;68.85
60974;BME280;46846;51.528;5.076;2023-09-19T06:40:10;100462.53;;;14.20;68.98
60974;BME280;46846;51.528;5.076;2023-09-19T06:42:47;100464.84;;;14.26;68.85
60974;BME280;46846;51.528;5.076;2023-09-19T06:45:15;100469.25;;;14.27;68.75
60974;BME280;46846;51.528;5.076;2023-09-19T06:47:48;100472.69;;;14.29;68.44
60974;BME280;46846;51.528;5.076;2023-09-19T06:50:21;100473.75;;;14.27;68.61
60974;BME280;46846;51.528;5.076;2023-09-19T06:52:51;100469.59;;;14.21;68.83
60974;BME280;46846;51.528;5.076;2023-09-19T06:55:18;100469.44;;;14.24;68.64
60974;BME280;46846;51.528;5.076;2023-09-19T06:57:48;100470.28;;;14.25;68.70
60974;BME280;46846;51.528;5.076;2023-09-19T07:00:13;100457.09;;;14.21;68.93
60974;BME280;46846;51.528;5.076;2023-09-19T07:03:01;100468.06;;;14.17;68.95
60974;BME280;46846;51.528;5.076;2023-09-19T07:05:29;100471.56;;;14.17;68.93
60974;BME280;46846;51.528;5.076;2023-09-19T07:07:59;100479.88;;;14.13;68.94
60974;BME280;46846;51.528;5.076;2023-09-19T07:10:25;100475.06;;;14.19;69.06
60974;BME280;46846;51.528;5.076;2023-09-19T07:13:01;100469.97;;;14.15;68.92
60974;BME280;46846;51.528;5.076;2023-09-19T07:15:28;100474.69;;;14.10;69.20
60974;BME280;46846;51.528;5.076;2023-09-19T07:17:54;100481.50;;;14.15;69.06
60974;BME280;46846;51.528;5.076;2023-09-19T07:20:22;100470.81;;;14.15;69.12
60974;BME280;46846;51.528;5.076;2023-09-19T07:22:48;100466.41;;;14.14;69.16
60974;BME280;46846;51.528;5.076;2023-09-19T07:25:15;100462.00;;;14.13;69.14
60974;BME280;46846;51.528;5.076;2023-09-19T07:27:41;100471.69;;;14.16;69.13
60974;BME280;46846;51.528;5.076;2023-09-19T07:30:08;100463.81;;;14.13;69.10
60974;BME280;46846;51.528;5.076;2023-09-19T07:32:34;100470.13;;;14.12;69.15
60974;BME280;46846;51.528;5.076;2023-09-19T07:35:02;100467.69;;;14.07;69.44
60974;BME280;46846;51.528;5.076;2023-09-19T07:37:32;100462.53;;;14.20;69.45
60974;BME280;46846;51.528;5.076;2023-09-19T07:40:04;100466.16;;;14.19;69.50
60974;BME280;46846;51.528;5.076;2023-09-19T07:42:35;100473.41;;;14.17;69.47
60974;BME280;46846;51.528;5.076;2023-09-19T07:45:02;100483.16;;;14.18;69.33
60974;BME280;46846;51.528;5.076;2023-09-19T07:47:28;100477.81;;;14.18;69.42
60974;BME280;46846;51.528;5.076;2023-09-19T07:49:55;100475.56;;;14.26;69.53
60974;BME280;46846;51.528;5.076;2023-09-19T07:52:20;100476.44;;;14.27;69.76
60974;BME280;46846;51.528;5.076;2023-09-19T07:54:48;100478.06;;;14.29;69.71
60974;BME280;46846;51.528;5.076;2023-09-19T07:57:14;100477.38;;;14.26;69.36
60974;BME280;46846;51.528;5.076;2023-09-19T07:59:40;100470.91;;;14.30;69.63
60974;BME280;46846;51.528;5.076;2023-09-19T08:02:07;100472.69;;;14.29;69.31
60974;BME280;46846;51.528;5.076;2023-09-19T08:04:35;100473.75;;;14.27;69.18
60974;BME280;46846;51.528;5.076;2023-09-19T08:07:00;100473.75;;;14.27;69.49
60974;BME280;46846;51.528;5.076;2023-09-19T08:09:28;100484.09;;;14.33;69.44
60974;BME280;46846;51.528;5.076;2023-09-19T08:11:58;100484.28;;;14.30;68.96
60974;BME280;46846;51.528;5.076;2023-09-19T08:14:23;100485.16;;;14.30;69.35
60974;BME280;46846;51.528;5.076;2023-09-19T08:16:50;100485.50;;;14.24;69.55
60974;BME280;46846;51.528;5.076;2023-09-19T08:19:16;100473.75;;;14.27;69.61
60974;BME280;46846;51.528;5.076;2023-09-19T08:21:41;100487.91;;;14.29;69.65
60974;BME280;46846;51.528;5.076;2023-09-19T08:24:10;100474.47;;;14.30;69.38
60974;BME280;46846;51.528;5.076;2023-09-19T08:26:36;100484.47;;;14.27;69.73
60974;BME280;46846;51.528;5.076;2023-09-19T08:29:03;100486.09;;;14.29;69.29
60974;BME280;46846;51.528;5.076;2023-09-19T08:31:30;100483.41;;;14.29;69.74
60974;BME280;46846;51.528;5.076;2023-09-19T08:33:55;100473.66;;;14.28;69.66
60974;BME280;46846;51.528;5.076;2023-09-19T08:36:21;100474.47;;;14.30;69.82
60974;BME280;46846;51.528;5.076;2023-09-19T08:38:46;100475.50;;;14.28;69.95
60974;BME280;46846;51.528;5.076;2023-09-19T08:41:12;100471.50;;;14.35;69.79
60974;BME280;46846;51.528;5.076;2023-09-19T08:43:37;100456.56;;;14.31;69.66
60974;BME280;46846;51.528;5.076;2023-09-19T08:46:10;100475.16;;;14.34;69.81
60974;BME280;46846;51.528;5.076;2023-09-19T08:48:39;100475.22;;;14.32;69.60
60974;BME280;46846;51.528;5.076;2023-09-19T08:51:12;100474.09;;;14.36;69.53
60974;BME280;46846;51.528;5.076;2023-09-19T08:53:51;100474.78;;;14.40;69.51
60974;BME280;46846;51.528;5.076;2023-09-19T08:56:18;100477.38;;;14.42;69.52
60974;BME280;46846;51.528;5.076;2023-09-19T08:58:51;100469.00;;;14.48;69.26
60974;BME280;46846;51.528;5.076;2023-09-19T09:01:19;100491.19;;;14.50;69.28
60974;BME280;46846;51.528;5.076;2023-09-19T09:03:51;100483.34;;;14.47;69.22
60974;BME280;46846;51.528;5.076;2023-09-19T09:06:19;100487.56;;;14.51;69.71
60974;BME280;46846;51.528;5.076;2023-09-19T09:08:46;100487.22;;;14.57;69.85
60974;BME280;46846;51.528;5.076;2023-09-19T09:11:12;100479.09;;;14.59;69.56
60974;BME280;46846;51.528;5.076;2023-09-19T09:13:38;100490.31;;;14.66;69.48
60974;BME280;46846;51.528;5.076;2023-09-19T09:16:06;100499.91;;;14.70;69.71
60974;BME280;46846;51.528;5.076;2023-09-19T09:18:31;100480.28;;;14.69;69.90
60974;BME280;46846;51.528;5.076;2023-09-19T09:20:57;100477.53;;;14.71;69.55
60974;BME280;46846;51.528;5.076;2023-09-19T09:23:22;100477.28;;;14.75;69.62
60974;BME280;46846;51.528;5.076;2023-09-19T09:28:20;100466.16;;;14.83;69.74
60974;BME280;46846;51.528;5.076;2023-09-19T09:30:46;100456.28;;;14.84;69.44
60974;BME280;46846;51.528;5.076;2023-09-19T09:33:12;100447.69;;;14.93;69.39
60974;BME280;46846;51.528;5.076;2023-09-19T09:35:49;100447.88;;;14.90;69.63
60974;BME280;46846;51.528;5.076;2023-09-19T09:38:21;100455.84;;;14.92;69.75
60974;BME280;46846;51.528;5.076;2023-09-19T09:40:52;100456.41;;;14.97;69.46
60974;BME280;46846;51.528;5.076;2023-09-19T09:46:14;100455.09;;;15.04;69.78
60974;BME280;46846;51.528;5.076;2023-09-19T09:51:41;100457.25;;;15.13;69.51
60974;BME280;46846;51.528;5.076;2023-09-19T09:54:23;100456.28;;;15.14;69.35
60974;BME280;46846;51.528;5.076;2023-09-19T09:57:09;100459.91;;;15.13;69.87
60974;BME280;46846;51.528;5.076;2023-09-19T10:02:16;100461.16;;;15.22;69.56
60974;BME280;46846;51.528;5.076;2023-09-19T10:04:57;100470.09;;;15.23;69.66
60974;BME280;46846;51.528;5.076;2023-09-19T10:07:34;100458.31;;;15.25;69.50
60974;BME280;46846;51.528;5.076;2023-09-19T10:10:15;100451.13;;;15.26;69.81
60974;BME280;46846;51.528;5.076;2023-09-19T10:12:58;100456.88;;;15.34;69.51
60974;BME280;46846;51.528;5.076;2023-09-19T10:15:31;100456.13;;;15.32;69.47
60974;BME280;46846;51.528;5.076;2023-09-19T10:18:00;100465.50;;;15.39;69.27
60974;BME280;46846;51.528;5.076;2023-09-19T10:20:28;100456.34;;;15.43;69.05
60974;BME280;46846;51.528;5.076;2023-09-19T10:23:07;100466.94;;;15.45;68.97
60974;BME280;46846;51.528;5.076;2023-09-19T10:25:37;100452.41;;;15.49;68.98
60974;BME280;46846;51.528;5.076;2023-09-19T10:28:06;100450.50;;;15.51;68.98
60974;BME280;46846;51.528;5.076;2023-09-19T10:30:37;100437.00;;;15.53;69.15
60974;BME280;46846;51.528;5.076;2023-09-19T10:33:11;100442.16;;;15.56;69.08
60974;BME280;46846;51.528;5.076;2023-09-19T10:35:39;100446.38;;;15.60;68.74
60974;BME280;46846;51.528;5.076;2023-09-19T10:38:09;100443.50;;;15.63;68.53
60974;BME280;46846;51.528;5.076;2023-09-19T10:40:37;100439.69;;;15.67;68.75
60974;BME280;46846;51.528;5.076;2023-09-19T10:43:06;100441.41;;;15.68;68.77
60974;BME280;46846;51.528;5.076;2023-09-19T10:45:33;100439.41;;;15.72;68.75
60974;BME280;46846;51.528;5.076;2023-09-19T10:47:59;100434.91;;;15.72;68.18
60974;BME280;46846;51.528;5.076;2023-09-19T10:50:48;100438.44;;;15.73;68.43
60974;BME280;46846;51.528;5.076;2023-09-19T10:53:16;100424.06;;;15.74;68.68
60974;BME280;46846;51.528;5.076;2023-09-19T10:55:52;100429.25;;;15.77;68.33
60974;BME280;46846;51.528;5.076;2023-09-19T10:58:26;100398.69;;;15.80;68.17
60974;BME280;46846;51.528;5.076;2023-09-19T11:00:57;100405.66;;;15.82;67.74
60974;BME280;46846;51.528;5.076;2023-09-19T11:03:37;100410.16;;;15.82;67.88
60974;BME280;46846;51.528;5.076;2023-09-19T11:06:13;100421.47;;;15.87;66.11
60974;BME280;46846;51.528;5.076;2023-09-19T11:08:51;100405.25;;;15.89;68.02
60974;BME280;46846;51.528;5.076;2023-09-19T11:17:02;100400.50;;;15.94;67.74
60974;BME280;46846;51.528;5.076;2023-09-19T11:30:44;100380.38;;;16.01;66.93
60974;BME280;46846;51.528;5.076;2023-09-19T11:33:20;100367.63;;;16.05;67.03
60974;BME280;46846;51.528;5.076;2023-09-19T11:46:27;100362.09;;;16.21;66.62
60974;BME280;46846;51.528;5.076;2023-09-19T11:48:53;100366.59;;;16.20;66.45
60974;BME280;46846;51.528;5.076;2023-09-19T11:51:23;100359.44;;;16.21;66.19
60974;BME280;46846;51.528;5.076;2023-09-19T11:53:58;100371.56;;;16.26;64.98
60974;BME280;46846;51.528;5.076;2023-09-19T11:56:27;100370.19;;;16.34;63.97
60974;BME280;46846;51.528;5.076;2023-09-19T11:58:55;100363.47;;;16.41;62.56
60974;BME280;46846;51.528;5.076;2023-09-19T12:01:29;100363.06;;;16.47;62.87
60974;BME280;46846;51.528;5.076;2023-09-19T12:03:56;100358.13;;;16.54;62.04
60974;BME280;46846;51.528;5.076;2023-09-19T12:06:24;100358.69;;;16.59;61.69
60974;BME280;46846;51.528;5.076;2023-09-19T12:08:49;100367.06;;;16.67;61.87
60974;BME280;46846;51.528;5.076;2023-09-19T12:11:17;100369.84;;;16.66;62.35
60974;BME280;46846;51.528;5.076;2023-09-19T12:13:47;100372.31;;;16.69;62.68
60974;BME280;46846;51.528;5.076;2023-09-19T12:18:40;100385.09;;;16.65;63.32
60974;BME280;46846;51.528;5.076;2023-09-19T12:21:07;100380.59;;;16.66;63.64
60974;BME280;46846;51.528;5.076;2023-09-19T12:23:37;100372.84;;;16.61;64.22
60974;BME280;46846;51.528;5.076;2023-09-19T12:26:06;100361.16;;;16.62;64.38
60974;BME280;46846;51.528;5.076;2023-09-19T12:28:41;100364.47;;;16.66;64.53
60974;BME280;46846;51.528;5.076;2023-09-19T12:31:07;100370.28;;;16.73;63.88
60974;BME280;46846;51.528;5.076;2023-09-19T12:33:34;100368.47;;;16.73;64.40
60974;BME280;46846;51.528;5.076;2023-09-19T12:36:19;100374.91;;;16.71;63.35
60974;BME280;46846;51.528;5.076;2023-09-19T12:38:48;100358.28;;;16.78;62.73
60974;BME280;46846;51.528;5.076;2023-09-19T12:41:14;100350.22;;;16.78;62.84
60974;BME280;46846;51.528;5.076;2023-09-19T12:43:39;100346.47;;;16.81;62.88
60974;BME280;46846;51.528;5.076;2023-09-19T12:46:06;100351.94;;;16.79;63.58
60974;BME280;46846;51.528;5.076;2023-09-19T12:48:32;100360.56;;;16.85;63.75
60974;BME280;46846;51.528;5.076;2023-09-19T12:53:39;100366.44;;;16.90;63.91
60974;BME280;46846;51.528;5.076;2023-09-19T12:56:08;100353.25;;;16.87;64.10
60974;BME280;46846;51.528;5.076;2023-09-19T12:58:55;100363.66;;;16.91;63.53
60974;BME280;46846;51.528;5.076;2023-09-19T13:01:22;100359.38;;;16.89;63.71
60974;BME280;46846;51.528;5.076;2023-09-19T13:07:00;100361.63;;;16.95;63.35
60974;BME280;46846;51.528;5.076;2023-09-19T13:09:30;100362.38;;;16.97;63.69
60974;BME280;46846;51.528;5.076;2023-09-19T13:12:04;100362.50;;;16.95;64.13
60974;BME280;46846;51.528;5.076;2023-09-19T13:14:30;100364.41;;;16.93;64.29
60974;BME280;46846;51.528;5.076;2023-09-19T13:17:09;100366.78;;;16.98;64.00
60974;BME280;46846;51.528;5.076;2023-09-19T13:19:42;100366.41;;;17.04;64.07
60974;BME280;46846;51.528;5.076;2023-09-19T13:22:45;100373.78;;;17.01;64.64
60974;BME280;46846;51.528;5.076;2023-09-19T13:25:24;100364.69;;;17.03;63.96
60974;BME280;46846;51.528;5.076;2023-09-19T13:27:52;100362.72;;;17.05;64.13
60974;BME280;46846;51.528;5.076;2023-09-19T13:30:20;100368.09;;;17.05;63.95
60974;BME280;46846;51.528;5.076;2023-09-19T13:32:47;100371.56;;;17.07;63.99
60974;BME280;46846;51.528;5.076;2023-09-19T13:35:13;100371.34;;;17.11;64.19
60974;BME280;46846;51.528;5.076;2023-09-19T13:37:41;100368.56;;;17.12;63.90
60974;BME280;46846;51.528;5.076;2023-09-19T13:40:09;100363.50;;;17.07;63.02
60974;BME280;46846;51.528;5.076;2023-09-19T13:42:34;100369.19;;;17.03;64.04
60974;BME280;46846;51.528;5.076;2023-09-19T13:45:04;100370.06;;;17.03;64.42
60974;BME280;46846;51.528;5.076;2023-09-19T13:47:30;100368.66;;;17.11;63.61
60974;BME280;46846;51.528;5.076;2023-09-19T13:49:56;100361.88;;;17.05;64.49
60974;BME280;46846;51.528;5.076;2023-09-19T13:52:22;100356.94;;;17.12;64.07
60974;BME280;46846;51.528;5.076;2023-09-19T13:54:50;100348.69;;;17.15;64.31
60974;BME280;46846;51.528;5.076;2023-09-19T13:57:16;100354.78;;;17.17;64.18
60974;BME280;46846;51.528;5.076;2023-09-19T13:59:42;100350.38;;;17.16;64.79
60974;BME280;46846;51.528;5.076;2023-09-19T14:02:07;100351.13;;;17.18;64.60
60974;BME280;46846;51.528;5.076;2023-09-19T14:04:33;100342.09;;;17.19;64.62
60974;BME280;46846;51.528;5.076;2023-09-19T14:07:00;100350.91;;;17.21;64.62